This is the latest recevied weather packets stored in our database for station/object NI0Z. If no packets are shown the sender has not sent any weather packets the latest 1 day(s).
| Time | Temp. | Humidity | Pressure | Rain* | Wind** | Luminosity | Snow |
|---|---|---|---|---|---|---|---|
| 1778081440 | 11.11° C | 49% | - | 0 mm | - | - | - |
| 1778081137 | 11.11° C | 52% | - | 0 mm | - | - | - |
| 1778079926 | 11.11° C | 53% | - | 0 mm | - | - | - |
| 1778079623 | 11.11° C | 54% | - | 0 mm | - | - | - |
| 1778076900 | 10° C | 62% | - | 0 mm | - | - | - |
| 1778076295 | 9.44° C | 60% | - | 0 mm | - | - | - |
| 1778075689 | 9.44° C | 65% | - | 0 mm | - | - | - |
| 1778075081 | 9.44° C | 64% | - | 0 mm | - | - | - |
| 1778074778 | 9.44° C | 68% | - | 0 mm | - | - | - |
| 1778074475 | 9.44° C | 67% | - | 0 mm | - | - | - |
| 1778072656 | 7.78° C | 81% | - | 0 mm | - | - | - |
| 1778071145 | 7.22° C | 84% | - | 0 mm | - | - | - |
| 1778070843 | 7.22° C | 85% | - | 0 mm | - | - | - |
| 1778070540 | 7.22° C | 85% | - | 0 mm | - | - | - |
| 1778069632 | 7.22° C | 85% | - | 0 mm | - | - | - |
| 1778068422 | 6.67° C | 83% | - | 0 mm | - | - | - |
| 1778067817 | 6.67° C | 82% | - | 0 mm | - | - | - |
| 1778066909 | 6.67° C | 85% | - | 0 mm | - | - | - |
| 1778065699 | 6.67° C | 84% | - | 0 mm | - | - | - |
| 1778065396 | 6.67° C | 83% | - | 0 mm | - | - | - |
| 1778064487 | 6.67° C | 86% | - | 0 mm | - | - | - |
| 1778063276 | 6.67° C | 88% | - | 0 mm | - | - | - |
| 1778062671 | 6.67° C | 89% | - | 0 mm | - | - | - |
| 1778062065 | 6.67° C | 90% | - | 0 mm | - | - | - |
| 1778061462 | 6.11° C | 90% | - | 0 mm | - | - | - |
* Rain latest hour (hover to see other rain measurements)
** Current wind speed in m/s (hover to see current wind gust speed)